Sisimiut, Greenland
Current Conditions -  °F | °C
As of 7:50 AM on Monday 20 Oct 2014 (Local Time) from BGSF Reporting Station
Clear Clear  
Wind Chill: -4°   Ceiling: Unl
Heat Index: 10°   Visibility: 6mi
Dew Point:   Wind: 12mph
Humidity: 67%   Direction: 80°E
Pressure: 30.09"   Gusts: NA
Location:  66.92°N, 53.66°W
Report Text: BGSF 200950Z AUTO 08010KT 9999NDV NCD M12/M17 Q1019
Loading
Personal Weather Stations






























Interactive Weather Map
Tropical Storm Tracking
New forecast layout! Learn more

10-Day Weather Forecast

Advertisements
Track Severe Weather on mobile